sensor_id;sensor_type;location;lat;lon;timestamp;P1;durP1;ratioP1;P2;durP2;ratioP2
20982;SDS011;10650;51.528;6.748;2022-08-30T00:01:22;7.03;;;3.60;;
20982;SDS011;10650;51.528;6.748;2022-08-30T00:03:52;7.75;;;3.80;;
20982;SDS011;10650;51.528;6.748;2022-08-30T00:06:21;5.80;;;3.35;;
20982;SDS011;10650;51.528;6.748;2022-08-30T00:08:49;7.05;;;3.83;;
20982;SDS011;10650;51.528;6.748;2022-08-30T00:11:20;6.65;;;3.63;;
20982;SDS011;10650;51.528;6.748;2022-08-30T00:13:50;4.60;;;3.40;;
20982;SDS011;10650;51.528;6.748;2022-08-30T00:16:19;6.80;;;3.50;;
20982;SDS011;10650;51.528;6.748;2022-08-30T00:18:48;3.75;;;3.28;;
20982;SDS011;10650;51.528;6.748;2022-08-30T00:21:17;6.43;;;3.40;;
20982;SDS011;10650;51.528;6.748;2022-08-30T00:23:45;3.60;;;2.95;;
20982;SDS011;10650;51.528;6.748;2022-08-30T00:26:13;4.75;;;3.60;;
20982;SDS011;10650;51.528;6.748;2022-08-30T00:28:42;3.58;;;3.20;;
20982;SDS011;10650;51.528;6.748;2022-08-30T00:31:10;4.55;;;3.20;;
20982;SDS011;10650;51.528;6.748;2022-08-30T00:33:40;7.60;;;3.42;;
20982;SDS011;10650;51.528;6.748;2022-08-30T00:36:09;4.05;;;3.10;;
20982;SDS011;10650;51.528;6.748;2022-08-30T00:38:36;4.55;;;3.40;;
20982;SDS011;10650;51.528;6.748;2022-08-30T00:41:04;3.40;;;3.03;;
20982;SDS011;10650;51.528;6.748;2022-08-30T00:43:33;5.53;;;3.42;;
20982;SDS011;10650;51.528;6.748;2022-08-30T00:46:03;4.22;;;3.25;;
20982;SDS011;10650;51.528;6.748;2022-08-30T00:48:35;4.75;;;3.40;;
20982;SDS011;10650;51.528;6.748;2022-08-30T00:53:39;3.78;;;3.20;;
20982;SDS011;10650;51.528;6.748;2022-08-30T00:58:40;3.55;;;2.70;;
20982;SDS011;10650;51.528;6.748;2022-08-30T01:01:12;6.45;;;3.08;;
20982;SDS011;10650;51.528;6.748;2022-08-30T01:03:41;4.80;;;2.97;;
20982;SDS011;10650;51.528;6.748;2022-08-30T01:06:10;5.63;;;3.00;;
20982;SDS011;10650;51.528;6.748;2022-08-30T01:08:40;4.22;;;3.05;;
20982;SDS011;10650;51.528;6.748;2022-08-30T01:11:08;4.95;;;3.20;;
20982;SDS011;10650;51.528;6.748;2022-08-30T01:13:37;5.18;;;3.20;;
20982;SDS011;10650;51.528;6.748;2022-08-30T01:16:06;3.72;;;2.95;;
20982;SDS011;10650;51.528;6.748;2022-08-30T01:18:36;3.80;;;2.80;;
20982;SDS011;10650;51.528;6.748;2022-08-30T01:21:07;4.93;;;3.30;;
20982;SDS011;10650;51.528;6.748;2022-08-30T01:23:43;5.07;;;2.65;;
20982;SDS011;10650;51.528;6.748;2022-08-30T01:26:13;3.22;;;2.90;;
20982;SDS011;10650;51.528;6.748;2022-08-30T01:28:46;4.30;;;2.70;;
20982;SDS011;10650;51.528;6.748;2022-08-30T01:31:16;3.67;;;3.17;;
20982;SDS011;10650;51.528;6.748;2022-08-30T01:33:45;4.22;;;3.03;;
20982;SDS011;10650;51.528;6.748;2022-08-30T01:36:16;4.97;;;2.85;;
20982;SDS011;10650;51.528;6.748;2022-08-30T01:38:50;6.50;;;3.20;;
20982;SDS011;10650;51.528;6.748;2022-08-30T01:41:21;3.40;;;3.10;;
20982;SDS011;10650;51.528;6.748;2022-08-30T01:43:52;4.35;;;2.75;;
20982;SDS011;10650;51.528;6.748;2022-08-30T01:46:24;2.85;;;2.60;;
20982;SDS011;10650;51.528;6.748;2022-08-30T01:48:54;2.58;;;2.05;;
20982;SDS011;10650;51.528;6.748;2022-08-30T01:51:25;4.70;;;2.90;;
20982;SDS011;10650;51.528;6.748;2022-08-30T01:53:56;5.47;;;3.17;;
20982;SDS011;10650;51.528;6.748;2022-08-30T01:56:25;3.72;;;2.80;;
20982;SDS011;10650;51.528;6.748;2022-08-30T01:58:54;4.35;;;2.55;;
20982;SDS011;10650;51.528;6.748;2022-08-30T02:01:28;2.78;;;2.50;;
20982;SDS011;10650;51.528;6.748;2022-08-30T02:03:58;3.47;;;3.08;;
20982;SDS011;10650;51.528;6.748;2022-08-30T02:06:26;4.85;;;2.88;;
20982;SDS011;10650;51.528;6.748;2022-08-30T02:08:56;3.60;;;3.20;;
20982;SDS011;10650;51.528;6.748;2022-08-30T02:11:24;3.33;;;2.80;;
20982;SDS011;10650;51.528;6.748;2022-08-30T02:13:55;6.65;;;3.35;;
20982;SDS011;10650;51.528;6.748;2022-08-30T02:16:23;3.72;;;3.28;;
20982;SDS011;10650;51.528;6.748;2022-08-30T02:18:52;4.38;;;3.03;;
20982;SDS011;10650;51.528;6.748;2022-08-30T02:21:21;3.15;;;2.85;;
20982;SDS011;10650;51.528;6.748;2022-08-30T02:23:50;3.55;;;3.00;;
20982;SDS011;10650;51.528;6.748;2022-08-30T02:26:19;4.53;;;3.15;;
20982;SDS011;10650;51.528;6.748;2022-08-30T02:28:48;3.42;;;2.97;;
20982;SDS011;10650;51.528;6.748;2022-08-30T02:31:17;3.22;;;2.67;;
20982;SDS011;10650;51.528;6.748;2022-08-30T02:33:46;3.58;;;3.00;;
20982;SDS011;10650;51.528;6.748;2022-08-30T02:36:16;4.85;;;3.15;;
20982;SDS011;10650;51.528;6.748;2022-08-30T02:38:46;3.30;;;3.00;;
20982;SDS011;10650;51.528;6.748;2022-08-30T02:41:15;2.97;;;2.65;;
20982;SDS011;10650;51.528;6.748;2022-08-30T02:43:44;5.55;;;3.67;;
20982;SDS011;10650;51.528;6.748;2022-08-30T02:46:12;5.43;;;3.20;;
20982;SDS011;10650;51.528;6.748;2022-08-30T02:48:41;3.53;;;2.88;;
20982;SDS011;10650;51.528;6.748;2022-08-30T02:51:10;5.15;;;3.03;;
20982;SDS011;10650;51.528;6.748;2022-08-30T02:53:40;3.70;;;3.10;;
20982;SDS011;10650;51.528;6.748;2022-08-30T02:56:10;3.60;;;3.10;;
20982;SDS011;10650;51.528;6.748;2022-08-30T02:58:38;3.58;;;3.17;;
20982;SDS011;10650;51.528;6.748;2022-08-30T03:01:09;3.80;;;3.30;;
20982;SDS011;10650;51.528;6.748;2022-08-30T03:03:39;3.80;;;3.30;;
20982;SDS011;10650;51.528;6.748;2022-08-30T03:06:09;4.53;;;3.30;;
20982;SDS011;10650;51.528;6.748;2022-08-30T03:08:37;7.30;;;3.38;;
20982;SDS011;10650;51.528;6.748;2022-08-30T03:11:05;3.25;;;2.70;;
20982;SDS011;10650;51.528;6.748;2022-08-30T03:13:33;4.10;;;3.50;;
20982;SDS011;10650;51.528;6.748;2022-08-30T03:16:02;3.85;;;3.40;;
20982;SDS011;10650;51.528;6.748;2022-08-30T03:18:31;4.32;;;3.42;;
20982;SDS011;10650;51.528;6.748;2022-08-30T03:20:59;3.83;;;3.38;;
20982;SDS011;10650;51.528;6.748;2022-08-30T03:23:27;3.88;;;3.50;;
20982;SDS011;10650;51.528;6.748;2022-08-30T03:25:55;3.47;;;3.10;;
20982;SDS011;10650;51.528;6.748;2022-08-30T03:28:23;4.45;;;3.50;;
20982;SDS011;10650;51.528;6.748;2022-08-30T03:30:51;3.67;;;3.38;;
20982;SDS011;10650;51.528;6.748;2022-08-30T03:33:20;4.60;;;3.47;;
20982;SDS011;10650;51.528;6.748;2022-08-30T03:35:49;4.90;;;3.50;;
20982;SDS011;10650;51.528;6.748;2022-08-30T03:38:17;4.93;;;3.42;;
20982;SDS011;10650;51.528;6.748;2022-08-30T03:40:45;4.00;;;3.58;;
20982;SDS011;10650;51.528;6.748;2022-08-30T03:43:13;4.72;;;3.80;;
20982;SDS011;10650;51.528;6.748;2022-08-30T03:45:41;4.18;;;3.28;;
20982;SDS011;10650;51.528;6.748;2022-08-30T03:48:10;5.63;;;3.60;;
20982;SDS011;10650;51.528;6.748;2022-08-30T03:50:38;4.75;;;3.50;;
20982;SDS011;10650;51.528;6.748;2022-08-30T03:53:08;4.50;;;3.53;;
20982;SDS011;10650;51.528;6.748;2022-08-30T03:55:36;3.72;;;3.42;;
20982;SDS011;10650;51.528;6.748;2022-08-30T03:58:04;4.05;;;3.65;;
20982;SDS011;10650;51.528;6.748;2022-08-30T04:00:32;4.22;;;3.92;;
20982;SDS011;10650;51.528;6.748;2022-08-30T04:03:00;5.28;;;4.25;;
20982;SDS011;10650;51.528;6.748;2022-08-30T04:05:28;4.90;;;4.13;;
20982;SDS011;10650;51.528;6.748;2022-08-30T04:07:56;5.70;;;3.92;;
20982;SDS011;10650;51.528;6.748;2022-08-30T04:10:25;7.15;;;5.00;;
20982;SDS011;10650;51.528;6.748;2022-08-30T04:12:53;4.88;;;3.83;;
20982;SDS011;10650;51.528;6.748;2022-08-30T04:15:21;6.13;;;4.07;;
20982;SDS011;10650;51.528;6.748;2022-08-30T04:17:49;5.45;;;4.90;;
20982;SDS011;10650;51.528;6.748;2022-08-30T04:20:19;5.10;;;4.60;;
20982;SDS011;10650;51.528;6.748;2022-08-30T04:22:48;5.47;;;4.15;;
20982;SDS011;10650;51.528;6.748;2022-08-30T04:25:16;5.60;;;4.53;;
20982;SDS011;10650;51.528;6.748;2022-08-30T04:27:46;4.47;;;4.07;;
20982;SDS011;10650;51.528;6.748;2022-08-30T04:30:14;6.85;;;4.47;;
20982;SDS011;10650;51.528;6.748;2022-08-30T04:32:44;6.88;;;4.40;;
20982;SDS011;10650;51.528;6.748;2022-08-30T04:35:12;5.68;;;4.47;;
20982;SDS011;10650;51.528;6.748;2022-08-30T04:37:40;5.82;;;4.43;;
20982;SDS011;10650;51.528;6.748;2022-08-30T04:40:08;4.85;;;4.38;;
20982;SDS011;10650;51.528;6.748;2022-08-30T04:42:37;6.85;;;4.80;;
20982;SDS011;10650;51.528;6.748;2022-08-30T04:45:07;5.68;;;4.90;;
20982;SDS011;10650;51.528;6.748;2022-08-30T04:47:37;6.47;;;4.60;;
20982;SDS011;10650;51.528;6.748;2022-08-30T04:50:05;4.95;;;4.45;;
20982;SDS011;10650;51.528;6.748;2022-08-30T04:52:34;5.05;;;4.55;;
20982;SDS011;10650;51.528;6.748;2022-08-30T04:55:03;4.80;;;4.30;;
20982;SDS011;10650;51.528;6.748;2022-08-30T04:57:31;5.43;;;4.90;;
20982;SDS011;10650;51.528;6.748;2022-08-30T04:59:59;6.10;;;4.88;;
20982;SDS011;10650;51.528;6.748;2022-08-30T05:02:28;4.55;;;3.97;;
20982;SDS011;10650;51.528;6.748;2022-08-30T05:04:56;5.35;;;3.95;;
20982;SDS011;10650;51.528;6.748;2022-08-30T05:07:41;7.03;;;4.50;;
20982;SDS011;10650;51.528;6.748;2022-08-30T05:10:09;5.55;;;3.65;;
20982;SDS011;10650;51.528;6.748;2022-08-30T05:12:37;8.38;;;4.75;;
20982;SDS011;10650;51.528;6.748;2022-08-30T05:15:05;7.13;;;4.45;;
20982;SDS011;10650;51.528;6.748;2022-08-30T05:17:36;5.05;;;4.50;;
20982;SDS011;10650;51.528;6.748;2022-08-30T05:20:06;4.97;;;4.07;;
20982;SDS011;10650;51.528;6.748;2022-08-30T05:22:35;5.00;;;4.38;;
20982;SDS011;10650;51.528;6.748;2022-08-30T05:25:04;5.43;;;4.85;;
20982;SDS011;10650;51.528;6.748;2022-08-30T05:27:32;7.47;;;4.95;;
20982;SDS011;10650;51.528;6.748;2022-08-30T05:30:03;5.78;;;4.80;;
20982;SDS011;10650;51.528;6.748;2022-08-30T05:32:31;6.53;;;5.00;;
20982;SDS011;10650;51.528;6.748;2022-08-30T05:35:00;4.82;;;4.18;;
20982;SDS011;10650;51.528;6.748;2022-08-30T05:37:28;6.85;;;4.15;;
20982;SDS011;10650;51.528;6.748;2022-08-30T05:39:56;5.78;;;5.00;;
20982;SDS011;10650;51.528;6.748;2022-08-30T05:42:24;6.78;;;5.03;;
20982;SDS011;10650;51.528;6.748;2022-08-30T05:44:52;5.25;;;4.75;;
20982;SDS011;10650;51.528;6.748;2022-08-30T05:47:21;8.05;;;5.25;;
20982;SDS011;10650;51.528;6.748;2022-08-30T05:49:49;5.35;;;4.85;;
20982;SDS011;10650;51.528;6.748;2022-08-30T05:52:18;7.55;;;4.53;;
20982;SDS011;10650;51.528;6.748;2022-08-30T05:54:51;5.57;;;5.00;;
20982;SDS011;10650;51.528;6.748;2022-08-30T05:57:20;6.95;;;4.50;;
20982;SDS011;10650;51.528;6.748;2022-08-30T05:59:48;5.95;;;5.13;;
20982;SDS011;10650;51.528;6.748;2022-08-30T06:02:16;5.32;;;4.82;;
20982;SDS011;10650;51.528;6.748;2022-08-30T06:04:44;7.68;;;5.28;;
20982;SDS011;10650;51.528;6.748;2022-08-30T06:07:12;7.15;;;5.43;;
20982;SDS011;10650;51.528;6.748;2022-08-30T06:09:43;7.38;;;5.43;;
20982;SDS011;10650;51.528;6.748;2022-08-30T06:12:11;6.32;;;5.15;;
20982;SDS011;10650;51.528;6.748;2022-08-30T06:14:39;5.45;;;4.75;;
20982;SDS011;10650;51.528;6.748;2022-08-30T06:17:07;5.78;;;4.75;;
20982;SDS011;10650;51.528;6.748;2022-08-30T06:19:35;7.18;;;5.68;;
20982;SDS011;10650;51.528;6.748;2022-08-30T06:22:03;8.38;;;5.60;;
20982;SDS011;10650;51.528;6.748;2022-08-30T06:24:31;5.15;;;4.43;;
20982;SDS011;10650;51.528;6.748;2022-08-30T06:27:22;7.47;;;5.30;;
20982;SDS011;10650;51.528;6.748;2022-08-30T06:29:50;6.93;;;5.20;;
20982;SDS011;10650;51.528;6.748;2022-08-30T06:32:18;6.55;;;5.03;;
20982;SDS011;10650;51.528;6.748;2022-08-30T06:34:46;5.15;;;4.75;;
20982;SDS011;10650;51.528;6.748;2022-08-30T06:37:14;10.90;;;4.97;;
20982;SDS011;10650;51.528;6.748;2022-08-30T06:39:55;6.13;;;4.95;;
20982;SDS011;10650;51.528;6.748;2022-08-30T06:42:25;6.70;;;5.63;;
20982;SDS011;10650;51.528;6.748;2022-08-30T06:44:57;6.38;;;4.90;;
20982;SDS011;10650;51.528;6.748;2022-08-30T06:47:26;7.13;;;4.75;;
20982;SDS011;10650;51.528;6.748;2022-08-30T06:49:54;7.93;;;4.82;;
20982;SDS011;10650;51.528;6.748;2022-08-30T06:52:22;5.45;;;4.57;;
20982;SDS011;10650;51.528;6.748;2022-08-30T06:54:50;5.53;;;4.88;;
20982;SDS011;10650;51.528;6.748;2022-08-30T06:57:19;5.20;;;4.70;;
20982;SDS011;10650;51.528;6.748;2022-08-30T06:59:48;5.78;;;5.00;;
20982;SDS011;10650;51.528;6.748;2022-08-30T07:02:22;8.57;;;4.57;;
20982;SDS011;10650;51.528;6.748;2022-08-30T07:04:51;6.03;;;4.43;;
20982;SDS011;10650;51.528;6.748;2022-08-30T07:07:18;7.72;;;4.32;;
20982;SDS011;10650;51.528;6.748;2022-08-30T07:09:46;6.32;;;4.20;;
20982;SDS011;10650;51.528;6.748;2022-08-30T07:12:14;4.97;;;4.40;;
20982;SDS011;10650;51.528;6.748;2022-08-30T07:14:42;4.53;;;3.83;;
20982;SDS011;10650;51.528;6.748;2022-08-30T07:17:11;3.75;;;3.45;;
20982;SDS011;10650;51.528;6.748;2022-08-30T07:20:00;6.45;;;4.03;;
20982;SDS011;10650;51.528;6.748;2022-08-30T07:22:28;4.40;;;4.00;;
20982;SDS011;10650;51.528;6.748;2022-08-30T07:24:56;4.03;;;3.72;;
20982;SDS011;10650;51.528;6.748;2022-08-30T07:27:24;4.20;;;3.65;;
20982;SDS011;10650;51.528;6.748;2022-08-30T07:29:52;5.32;;;3.30;;
20982;SDS011;10650;51.528;6.748;2022-08-30T07:32:21;6.13;;;3.83;;
20982;SDS011;10650;51.528;6.748;2022-08-30T07:34:48;6.75;;;4.03;;
20982;SDS011;10650;51.528;6.748;2022-08-30T07:37:17;4.63;;;3.20;;
20982;SDS011;10650;51.528;6.748;2022-08-30T07:39:44;3.97;;;3.47;;
20982;SDS011;10650;51.528;6.748;2022-08-30T07:42:13;5.20;;;3.50;;
20982;SDS011;10650;51.528;6.748;2022-08-30T07:44:41;6.20;;;3.15;;
20982;SDS011;10650;51.528;6.748;2022-08-30T07:47:09;4.65;;;3.53;;
20982;SDS011;10650;51.528;6.748;2022-08-30T07:49:38;6.55;;;3.03;;
20982;SDS011;10650;51.528;6.748;2022-08-30T07:52:06;4.78;;;3.20;;
20982;SDS011;10650;51.528;6.748;2022-08-30T07:54:34;5.30;;;2.97;;
20982;SDS011;10650;51.528;6.748;2022-08-30T07:57:02;4.38;;;2.90;;
20982;SDS011;10650;51.528;6.748;2022-08-30T07:59:30;6.95;;;3.35;;
20982;SDS011;10650;51.528;6.748;2022-08-30T08:02:01;4.57;;;3.17;;
20982;SDS011;10650;51.528;6.748;2022-08-30T08:04:29;3.65;;;3.20;;
20982;SDS011;10650;51.528;6.748;2022-08-30T08:06:59;4.70;;;3.00;;
20982;SDS011;10650;51.528;6.748;2022-08-30T08:09:27;4.63;;;2.80;;
20982;SDS011;10650;51.528;6.748;2022-08-30T08:11:55;6.70;;;3.47;;
20982;SDS011;10650;51.528;6.748;2022-08-30T08:14:23;4.40;;;3.08;;
20982;SDS011;10650;51.528;6.748;2022-08-30T08:16:51;5.40;;;2.90;;
20982;SDS011;10650;51.528;6.748;2022-08-30T08:19:19;6.75;;;3.00;;
20982;SDS011;10650;51.528;6.748;2022-08-30T08:21:46;4.80;;;2.90;;
20982;SDS011;10650;51.528;6.748;2022-08-30T08:24:36;3.50;;;2.60;;
20982;SDS011;10650;51.528;6.748;2022-08-30T08:27:04;4.45;;;2.50;;
20982;SDS011;10650;51.528;6.748;2022-08-30T08:29:32;5.60;;;2.90;;
20982;SDS011;10650;51.528;6.748;2022-08-30T08:32:00;5.10;;;2.97;;
20982;SDS011;10650;51.528;6.748;2022-08-30T08:34:27;5.40;;;3.17;;
20982;SDS011;10650;51.528;6.748;2022-08-30T08:36:55;4.32;;;2.97;;
20982;SDS011;10650;51.528;6.748;2022-08-30T08:39:23;8.45;;;2.85;;
20982;SDS011;10650;51.528;6.748;2022-08-30T08:41:54;4.40;;;2.75;;
20982;SDS011;10650;51.528;6.748;2022-08-30T08:44:38;4.13;;;2.90;;
20982;SDS011;10650;51.528;6.748;2022-08-30T08:47:22;4.68;;;2.60;;
20982;SDS011;10650;51.528;6.748;2022-08-30T08:49:52;5.75;;;2.50;;
20982;SDS011;10650;51.528;6.748;2022-08-30T08:52:26;4.47;;;2.45;;
20982;SDS011;10650;51.528;6.748;2022-08-30T08:55:15;4.50;;;2.50;;
20982;SDS011;10650;51.528;6.748;2022-08-30T08:57:48;3.60;;;2.50;;
20982;SDS011;10650;51.528;6.748;2022-08-30T09:00:17;2.90;;;2.40;;
20982;SDS011;10650;51.528;6.748;2022-08-30T09:02:46;4.45;;;2.25;;
20982;SDS011;10650;51.528;6.748;2022-08-30T09:05:21;4.68;;;2.67;;
20982;SDS011;10650;51.528;6.748;2022-08-30T09:07:53;5.15;;;2.63;;
20982;SDS011;10650;51.528;6.748;2022-08-30T09:10:27;4.32;;;2.60;;
20982;SDS011;10650;51.528;6.748;2022-08-30T09:13:17;3.85;;;2.47;;
20982;SDS011;10650;51.528;6.748;2022-08-30T09:15:48;3.30;;;2.40;;
20982;SDS011;10650;51.528;6.748;2022-08-30T09:18:21;3.60;;;2.30;;
20982;SDS011;10650;51.528;6.748;2022-08-30T09:21:11;4.75;;;2.28;;
20982;SDS011;10650;51.528;6.748;2022-08-30T09:23:45;3.45;;;2.25;;
20982;SDS011;10650;51.528;6.748;2022-08-30T09:26:29;7.32;;;2.50;;
20982;SDS011;10650;51.528;6.748;2022-08-30T09:29:00;4.05;;;2.30;;
20982;SDS011;10650;51.528;6.748;2022-08-30T09:31:32;7.07;;;2.38;;
20982;SDS011;10650;51.528;6.748;2022-08-30T09:34:15;2.70;;;1.90;;
20982;SDS011;10650;51.528;6.748;2022-08-30T09:36:46;6.70;;;2.42;;
20982;SDS011;10650;51.528;6.748;2022-08-30T09:39:17;5.47;;;2.72;;
20982;SDS011;10650;51.528;6.748;2022-08-30T09:41:48;4.03;;;3.03;;
20982;SDS011;10650;51.528;6.748;2022-08-30T09:44:18;4.30;;;2.42;;
20982;SDS011;10650;51.528;6.748;2022-08-30T09:46:50;5.13;;;2.60;;
20982;SDS011;10650;51.528;6.748;2022-08-30T09:49:28;3.63;;;2.38;;
20982;SDS011;10650;51.528;6.748;2022-08-30T09:52:11;3.65;;;2.22;;
20982;SDS011;10650;51.528;6.748;2022-08-30T09:54:48;4.25;;;2.22;;
20982;SDS011;10650;51.528;6.748;2022-08-30T09:57:30;3.08;;;1.90;;
20982;SDS011;10650;51.528;6.748;2022-08-30T10:00:09;3.47;;;1.98;;
20982;SDS011;10650;51.528;6.748;2022-08-30T10:02:49;2.80;;;2.13;;
20982;SDS011;10650;51.528;6.748;2022-08-30T10:05:26;3.80;;;2.10;;
20982;SDS011;10650;51.528;6.748;2022-08-30T10:08:05;2.78;;;2.00;;
20982;SDS011;10650;51.528;6.748;2022-08-30T10:10:40;2.13;;;1.90;;
20982;SDS011;10650;51.528;6.748;2022-08-30T10:13:19;1.95;;;1.50;;
20982;SDS011;10650;51.528;6.748;2022-08-30T10:16:01;3.83;;;2.00;;
20982;SDS011;10650;51.528;6.748;2022-08-30T10:18:42;3.33;;;2.40;;
20982;SDS011;10650;51.528;6.748;2022-08-30T10:21:20;2.90;;;1.73;;
20982;SDS011;10650;51.528;6.748;2022-08-30T10:23:54;3.55;;;1.75;;
20982;SDS011;10650;51.528;6.748;2022-08-30T10:28:58;3.53;;;2.08;;
20982;SDS011;10650;51.528;6.748;2022-08-30T10:31:32;3.28;;;2.13;;
20982;SDS011;10650;51.528;6.748;2022-08-30T10:34:07;5.35;;;1.80;;
20982;SDS011;10650;51.528;6.748;2022-08-30T10:36:43;5.70;;;2.05;;
20982;SDS011;10650;51.528;6.748;2022-08-30T10:39:17;4.72;;;2.20;;
20982;SDS011;10650;51.528;6.748;2022-08-30T10:41:57;4.32;;;2.40;;
20982;SDS011;10650;51.528;6.748;2022-08-30T10:44:33;2.97;;;1.73;;
20982;SDS011;10650;51.528;6.748;2022-08-30T10:47:10;4.53;;;1.92;;
20982;SDS011;10650;51.528;6.748;2022-08-30T10:49:49;3.25;;;1.85;;
20982;SDS011;10650;51.528;6.748;2022-08-30T10:52:25;4.35;;;2.10;;
20982;SDS011;10650;51.528;6.748;2022-08-30T10:54:58;4.50;;;2.08;;
20982;SDS011;10650;51.528;6.748;2022-08-30T10:57:28;2.33;;;1.73;;
20982;SDS011;10650;51.528;6.748;2022-08-30T10:59:57;2.65;;;1.92;;
20982;SDS011;10650;51.528;6.748;2022-08-30T11:02:52;5.25;;;2.25;;
20982;SDS011;10650;51.528;6.748;2022-08-30T11:08:44;4.13;;;2.20;;
20982;SDS011;10650;51.528;6.748;2022-08-30T11:11:31;4.47;;;2.20;;
20982;SDS011;10650;51.528;6.748;2022-08-30T11:14:09;4.18;;;2.03;;
20982;SDS011;10650;51.528;6.748;2022-08-30T11:16:41;2.42;;;1.95;;
20982;SDS011;10650;51.528;6.748;2022-08-30T11:19:16;3.10;;;1.90;;
20982;SDS011;10650;51.528;6.748;2022-08-30T11:21:47;4.32;;;2.25;;
20982;SDS011;10650;51.528;6.748;2022-08-30T11:24:17;2.97;;;2.20;;
20982;SDS011;10650;51.528;6.748;2022-08-30T11:29:37;4.35;;;2.13;;
20982;SDS011;10650;51.528;6.748;2022-08-30T11:32:21;3.58;;;2.10;;
20982;SDS011;10650;51.528;6.748;2022-08-30T11:35:06;5.13;;;2.20;;
20982;SDS011;10650;51.528;6.748;2022-08-30T11:37:38;2.35;;;1.85;;
20982;SDS011;10650;51.528;6.748;2022-08-30T11:40:09;4.63;;;2.05;;
20982;SDS011;10650;51.528;6.748;2022-08-30T11:42:59;4.90;;;1.90;;
20982;SDS011;10650;51.528;6.748;2022-08-30T11:46:14;5.30;;;2.10;;
20982;SDS011;10650;51.528;6.748;2022-08-30T11:48:48;4.15;;;2.00;;
20982;SDS011;10650;51.528;6.748;2022-08-30T11:54:46;5.32;;;2.20;;
20982;SDS011;10650;51.528;6.748;2022-08-30T11:57:26;2.97;;;1.80;;
20982;SDS011;10650;51.528;6.748;2022-08-30T12:00:06;2.28;;;1.73;;
20982;SDS011;10650;51.528;6.748;2022-08-30T12:02:49;3.65;;;1.90;;
20982;SDS011;10650;51.528;6.748;2022-08-30T12:08:40;3.50;;;2.03;;
20982;SDS011;10650;51.528;6.748;2022-08-30T12:17:20;3.53;;;2.00;;
20982;SDS011;10650;51.528;6.748;2022-08-30T12:20:16;2.45;;;1.88;;
20982;SDS011;10650;51.528;6.748;2022-08-30T12:22:48;3.47;;;2.10;;
20982;SDS011;10650;51.528;6.748;2022-08-30T12:25:19;4.70;;;2.08;;
20982;SDS011;10650;51.528;6.748;2022-08-30T12:28:06;4.60;;;2.15;;
20982;SDS011;10650;51.528;6.748;2022-08-30T12:30:36;3.50;;;2.10;;
20982;SDS011;10650;51.528;6.748;2022-08-30T12:33:10;3.17;;;2.00;;
20982;SDS011;10650;51.528;6.748;2022-08-30T12:35:41;3.17;;;2.30;;
20982;SDS011;10650;51.528;6.748;2022-08-30T12:38:12;4.47;;;2.20;;
20982;SDS011;10650;51.528;6.748;2022-08-30T12:40:53;4.55;;;1.98;;
20982;SDS011;10650;51.528;6.748;2022-08-30T12:43:27;3.00;;;1.95;;
20982;SDS011;10650;51.528;6.748;2022-08-30T12:46:07;4.40;;;2.13;;
20982;SDS011;10650;51.528;6.748;2022-08-30T12:48:42;3.08;;;1.95;;
20982;SDS011;10650;51.528;6.748;2022-08-30T12:51:30;3.42;;;1.77;;
20982;SDS011;10650;51.528;6.748;2022-08-30T12:54:05;2.75;;;2.17;;
20982;SDS011;10650;51.528;6.748;2022-08-30T12:56:51;3.20;;;1.98;;
20982;SDS011;10650;51.528;6.748;2022-08-30T12:59:41;4.10;;;2.22;;
20982;SDS011;10650;51.528;6.748;2022-08-30T13:02:20;4.22;;;2.30;;
20982;SDS011;10650;51.528;6.748;2022-08-30T13:04:51;3.92;;;2.00;;
20982;SDS011;10650;51.528;6.748;2022-08-30T13:07:27;2.60;;;1.95;;
20982;SDS011;10650;51.528;6.748;2022-08-30T13:09:59;5.63;;;2.20;;
20982;SDS011;10650;51.528;6.748;2022-08-30T13:12:37;4.45;;;2.08;;
20982;SDS011;10650;51.528;6.748;2022-08-30T13:15:10;2.58;;;2.05;;
20982;SDS011;10650;51.528;6.748;2022-08-30T13:17:41;3.40;;;2.10;;
20982;SDS011;10650;51.528;6.748;2022-08-30T13:20:20;3.47;;;2.00;;
20982;SDS011;10650;51.528;6.748;2022-08-30T13:23:04;4.07;;;2.03;;
20982;SDS011;10650;51.528;6.748;2022-08-30T13:25:35;4.40;;;2.33;;
20982;SDS011;10650;51.528;6.748;2022-08-30T13:28:05;4.90;;;1.92;;
20982;SDS011;10650;51.528;6.748;2022-08-30T13:30:35;2.42;;;2.22;;
20982;SDS011;10650;51.528;6.748;2022-08-30T13:33:03;6.03;;;2.40;;
20982;SDS011;10650;51.528;6.748;2022-08-30T13:35:33;2.45;;;2.08;;
20982;SDS011;10650;51.528;6.748;2022-08-30T13:38:01;3.25;;;2.13;;
20982;SDS011;10650;51.528;6.748;2022-08-30T13:40:29;2.70;;;2.17;;
20982;SDS011;10650;51.528;6.748;2022-08-30T13:42:57;6.07;;;2.50;;
20982;SDS011;10650;51.528;6.748;2022-08-30T13:45:26;3.88;;;2.35;;
20982;SDS011;10650;51.528;6.748;2022-08-30T13:48:09;3.60;;;2.30;;
20982;SDS011;10650;51.528;6.748;2022-08-30T13:50:44;4.70;;;2.00;;
20982;SDS011;10650;51.528;6.748;2022-08-30T13:53:13;3.97;;;2.53;;
20982;SDS011;10650;51.528;6.748;2022-08-30T13:56:02;2.53;;;2.22;;
20982;SDS011;10650;51.528;6.748;2022-08-30T13:58:32;4.80;;;2.00;;
20982;SDS011;10650;51.528;6.748;2022-08-30T14:01:00;2.47;;;1.90;;
20982;SDS011;10650;51.528;6.748;2022-08-30T14:03:28;4.32;;;2.15;;
20982;SDS011;10650;51.528;6.748;2022-08-30T14:05:58;3.10;;;1.90;;
20982;SDS011;10650;51.528;6.748;2022-08-30T14:08:46;3.80;;;2.20;;
20982;SDS011;10650;51.528;6.748;2022-08-30T14:11:22;3.22;;;2.35;;
20982;SDS011;10650;51.528;6.748;2022-08-30T14:13:51;3.67;;;2.25;;
20982;SDS011;10650;51.528;6.748;2022-08-30T14:16:42;4.85;;;2.00;;
20982;SDS011;10650;51.528;6.748;2022-08-30T14:19:12;4.03;;;2.20;;
20982;SDS011;10650;51.528;6.748;2022-08-30T14:21:43;4.95;;;2.38;;
20982;SDS011;10650;51.528;6.748;2022-08-30T14:24:14;5.43;;;2.10;;
20982;SDS011;10650;51.528;6.748;2022-08-30T14:26:46;5.18;;;2.40;;
20982;SDS011;10650;51.528;6.748;2022-08-30T14:29:18;3.77;;;1.90;;
20982;SDS011;10650;51.528;6.748;2022-08-30T14:31:49;3.88;;;2.28;;
20982;SDS011;10650;51.528;6.748;2022-08-30T14:34:17;3.00;;;2.00;;
20982;SDS011;10650;51.528;6.748;2022-08-30T14:36:50;4.03;;;2.30;;
20982;SDS011;10650;51.528;6.748;2022-08-30T14:39:19;5.20;;;2.47;;
20982;SDS011;10650;51.528;6.748;2022-08-30T14:41:49;4.40;;;2.50;;
20982;SDS011;10650;51.528;6.748;2022-08-30T14:46:49;2.55;;;2.33;;
20982;SDS011;10650;51.528;6.748;2022-08-30T14:49:18;2.65;;;2.15;;
20982;SDS011;10650;51.528;6.748;2022-08-30T14:51:48;4.38;;;2.50;;
20982;SDS011;10650;51.528;6.748;2022-08-30T14:54:19;3.17;;;2.13;;
20982;SDS011;10650;51.528;6.748;2022-08-30T14:56:50;4.35;;;2.00;;
20982;SDS011;10650;51.528;6.748;2022-08-30T14:59:19;2.45;;;2.10;;
20982;SDS011;10650;51.528;6.748;2022-08-30T15:01:48;4.70;;;2.42;;
20982;SDS011;10650;51.528;6.748;2022-08-30T15:04:16;4.10;;;2.20;;
20982;SDS011;10650;51.528;6.748;2022-08-30T15:06:47;4.10;;;2.20;;
20982;SDS011;10650;51.528;6.748;2022-08-30T15:09:18;3.55;;;2.25;;
20982;SDS011;10650;51.528;6.748;2022-08-30T15:11:50;2.47;;;2.10;;
20982;SDS011;10650;51.528;6.748;2022-08-30T15:14:20;4.45;;;2.25;;
20982;SDS011;10650;51.528;6.748;2022-08-30T15:16:48;3.40;;;2.30;;
20982;SDS011;10650;51.528;6.748;2022-08-30T15:19:19;3.72;;;2.33;;
20982;SDS011;10650;51.528;6.748;2022-08-30T15:21:48;2.75;;;2.00;;
20982;SDS011;10650;51.528;6.748;2022-08-30T15:24:19;3.65;;;2.10;;
20982;SDS011;10650;51.528;6.748;2022-08-30T15:26:55;2.63;;;2.05;;
20982;SDS011;10650;51.528;6.748;2022-08-30T15:29:25;2.53;;;1.88;;
20982;SDS011;10650;51.528;6.748;2022-08-30T15:31:57;3.28;;;1.90;;
20982;SDS011;10650;51.528;6.748;2022-08-30T15:34:26;2.83;;;2.03;;
20982;SDS011;10650;51.528;6.748;2022-08-30T15:36:55;3.17;;;2.10;;
20982;SDS011;10650;51.528;6.748;2022-08-30T15:39:25;4.13;;;2.78;;
20982;SDS011;10650;51.528;6.748;2022-08-30T15:41:54;4.15;;;2.40;;
20982;SDS011;10650;51.528;6.748;2022-08-30T15:46:54;2.88;;;1.95;;